Time;durP1;ratioP1;P1;durP2;ratioP2;P2;SDS_P1;SDS_P2;PMS_P1;PMS_P2;Temp;Humidity;BMP_temperature;BMP_pressure;BME280_temperature;BME280_humidity;BME280_pressure;Samples;Min_cycle;Max_cycle;Signal;HPM_P1;HPM_P2
2022/11/01 00:01:45;;;;;;;27.55;13.80;;;;;;;20.70;52.88;101494.45;1715255;81;21037;-78
2022/11/01 00:04:11;;;;;;;23.35;13.53;;;;;;;20.69;52.86;101502.48;1740096;81;21561;-78
2022/11/01 00:06:38;;;;;;;23.90;13.85;;;;;;;20.69;52.84;101503.86;1739329;81;21732;-78
2022/11/01 00:09:04;;;;;;;23.20;12.68;;;;;;;20.69;52.83;101503.86;1683666;84;21080;-79
2022/11/01 00:11:31;;;;;;;23.32;13.68;;;;;;;20.69;52.82;101496.39;1712144;83;21125;-79
2022/11/01 00:13:57;;;;;;;21.77;12.35;;;;;;;20.68;52.77;101503.05;1714731;82;21009;-79
2022/11/01 00:16:23;;;;;;;20.02;12.33;;;;;;;20.68;52.77;101501.66;1709465;83;21532;-79
2022/11/01 00:18:49;;;;;;;21.23;13.08;;;;;;;20.68;52.73;101500.83;1712411;82;20990;-78
2022/11/01 00:21:16;;;;;;;22.90;13.55;;;;;;;20.67;52.73;101498.63;1678701;83;21122;-79
2022/11/01 00:23:43;;;;;;;21.87;12.75;;;;;;;20.67;52.72;101497.25;1714817;81;21702;-79
2022/11/01 00:26:16;;;;;;;23.38;13.48;;;;;;;20.67;52.67;101506.09;1677995;84;21108;-78
2022/11/01 00:28:43;;;;;;;22.98;13.98;;;;;;;20.67;52.66;101497.25;1699608;82;21794;-79
2022/11/01 00:31:09;;;;;;;26.17;13.75;;;;;;;20.67;52.66;101499.19;1694245;84;21821;-78
2022/11/01 00:33:36;;;;;;;20.65;12.73;;;;;;;20.66;52.63;101492.03;1694386;84;21100;-78
2022/11/01 00:36:03;;;;;;;25.30;12.60;;;;;;;20.67;52.63;101499.19;1722293;82;21023;-79
2022/11/01 00:38:29;;;;;;;21.97;13.05;;;;;;;20.67;52.60;101502.77;1719677;82;21027;-78
2022/11/01 00:40:55;;;;;;;19.55;12.43;;;;;;;20.66;52.58;101496.19;1719822;81;21058;-78
2022/11/01 00:43:22;;;;;;;21.02;12.00;;;;;;;20.66;52.56;101501.16;1736808;80;21532;-78
2022/11/01 00:45:48;;;;;;;21.23;12.20;;;;;;;20.67;52.54;101508.86;1759311;80;21013;-79
2022/11/01 00:48:14;;;;;;;18.07;12.35;;;;;;;20.66;52.52;101508.63;1757575;80;21065;-78
2022/11/01 00:50:41;;;;;;;18.67;11.73;;;;;;;20.67;52.51;101512.45;1759112;80;21033;-78
2022/11/01 00:53:08;;;;;;;21.07;11.95;;;;;;;20.65;52.50;101509.19;1758936;80;21584;-78
2022/11/01 00:55:34;;;;;;;21.30;11.65;;;;;;;20.66;52.48;101506.69;1759980;80;21753;-79
2022/11/01 00:58:01;;;;;;;19.52;12.05;;;;;;;20.67;52.46;101504.72;1757605;80;21163;-78
2022/11/01 01:00:27;;;;;;;20.97;12.07;;;;;;;20.65;52.43;101501.45;1759000;80;21014;-78
2022/11/01 01:02:54;;;;;;;18.35;12.10;;;;;;;20.65;52.42;101512.50;1756589;81;21572;-79
2022/11/01 01:05:20;;;;;;;22.40;12.90;;;;;;;20.65;52.40;101506.98;1757642;80;21101;-78
2022/11/01 01:07:46;;;;;;;19.25;11.05;;;;;;;20.65;52.39;101509.73;1760011;80;21315;-78
2022/11/01 01:10:13;;;;;;;20.17;12.13;;;;;;;20.64;52.34;101510.30;1760066;81;21152;-79
2022/11/01 01:12:39;;;;;;;20.45;12.60;;;;;;;20.65;52.37;101501.45;1759550;80;21016;-78
2022/11/01 01:15:08;;;;;;;22.55;12.73;;;;;;;20.65;52.33;101500.89;1757500;81;21053;-79
2022/11/01 01:17:34;;;;;;;21.55;11.88;;;;;;;20.64;52.30;101497.03;1759461;80;21061;-79
2022/11/01 01:20:00;;;;;;;20.17;12.47;;;;;;;20.64;52.29;101502.00;1759561;79;21053;-78
2022/11/01 01:22:27;;;;;;;19.10;12.35;;;;;;;20.64;52.26;101495.65;1758705;80;21156;-79
2022/11/01 01:24:54;;;;;;;19.10;12.68;;;;;;;20.63;52.27;101500.35;1756392;80;21037;-78
2022/11/01 01:27:20;;;;;;;22.07;12.65;;;;;;;20.63;52.25;101503.12;1728269;81;21023;-78
2022/11/01 01:29:46;;;;;;;18.00;10.80;;;;;;;20.64;52.20;101497.03;1758991;80;21089;-79
2022/11/01 01:32:17;;;;;;;16.73;12.43;;;;;;;20.63;52.20;101498.97;1758292;80;21106;-78
2022/11/01 01:34:44;;;;;;;19.25;12.18;;;;;;;20.63;52.18;101495.38;1725173;81;21631;-79
2022/11/01 01:37:10;;;;;;;17.82;11.25;;;;;;;20.62;52.19;101497.35;1759849;80;21188;-78
2022/11/01 01:39:42;;;;;;;21.60;12.03;;;;;;;20.62;52.18;101500.67;1753311;81;21085;-78
2022/11/01 01:42:26;;;;;;;19.77;12.33;;;;;;;20.62;52.14;101498.73;1755401;80;22078;-78
2022/11/01 01:45:01;;;;;;;19.30;11.50;;;;;;;20.62;52.12;101495.97;1749521;80;21205;-79
2022/11/01 01:47:31;;;;;;;19.32;11.55;;;;;;;20.62;52.11;101502.05;1758136;79;21010;-79
2022/11/01 01:50:28;;;;;;;20.23;11.93;;;;;;;20.62;52.06;101492.38;1757691;81;21041;-79
2022/11/01 01:53:12;;;;;;;19.25;12.05;;;;;;;20.61;52.05;101497.08;1759090;80;21228;-78
2022/11/01 01:55:50;;;;;;;21.12;11.28;;;;;;;20.60;52.03;101492.67;1751707;81;21108;-78
2022/11/01 01:58:19;;;;;;;17.37;11.00;;;;;;;20.59;52.00;101492.41;1747058;81;21496;-79
2022/11/01 02:00:45;;;;;;;16.95;10.95;;;;;;;20.59;51.99;101500.70;1744813;81;21092;-78
2022/11/01 02:03:11;;;;;;;16.90;10.80;;;;;;;20.59;51.97;101495.16;1745051;81;21011;-78
2022/11/01 02:05:50;;;;;;;17.70;11.25;;;;;;;20.59;51.97;101499.31;1729190;81;40545;-78
2022/11/01 02:08:25;;;;;;;17.10;10.90;;;;;;;20.59;51.94;101499.31;1748662;81;20992;-78
2022/11/01 02:10:44;;;;;;;16.52;10.75;;;;;;;20.58;51.92;101496.28;1748536;80;21741;-79
2022/11/01 02:13:12;;;;;;;20.48;12.37;;;;;;;20.59;51.91;101499.31;1745233;81;21048;-78
2022/11/01 02:15:53;;;;;;;18.82;10.82;;;;;;;20.60;51.90;101497.38;1746596;81;21083;-79
2022/11/01 02:18:34;;;;;;;15.50;11.03;;;;;;;20.59;51.86;101502.08;1724282;81;21103;-79
2022/11/01 02:21:24;;;;;;;18.70;10.35;;;;;;;20.60;51.85;101498.76;1709981;81;21047;-79
2022/11/01 02:24:21;;;;;;;17.50;10.85;;;;;;;20.58;51.82;101494.90;1748546;81;22005;-78
2022/11/01 02:27:14;;;;;;;19.98;10.98;;;;;;;20.58;51.80;101503.78;1752261;81;21125;-79
2022/11/01 02:30:11;;;;;;;16.95;10.72;;;;;;;20.57;51.78;101500.75;1750343;81;21008;-78
2022/11/01 02:32:48;;;;;;;16.62;11.20;;;;;;;20.57;51.76;101504.89;1748921;80;21120;-78
2022/11/01 02:35:23;;;;;;;14.07;10.45;;;;;;;20.56;51.74;101506.84;1748466;80;21576;-78
2022/11/01 02:38:40;;;;;;;19.42;11.22;;;;;;;20.56;51.72;101503.24;1750894;81;21205;-78
2022/11/01 02:41:30;;;;;;;18.12;10.95;;;;;;;20.55;51.73;101502.42;1747518;81;21028;-78
2022/11/01 02:44:02;;;;;;;16.87;11.12;;;;;;;20.53;51.68;101506.06;1726643;80;21144;-79
2022/11/01 02:49:20;;;;;;;18.00;11.22;;;;;;;20.53;51.67;101508.83;1747253;80;21568;-79
2022/11/01 02:51:46;;;;;;;16.75;10.82;;;;;;;20.53;51.66;101515.73;1747601;80;21550;-79
2022/11/01 02:54:24;;;;;;;14.78;9.90;;;;;;;20.51;51.64;101514.64;1747991;81;21071;-78
2022/11/01 02:56:50;;;;;;;14.28;10.13;;;;;;;20.53;51.63;101521.27;1749096;81;20989;-78
2022/11/01 02:59:24;;;;;;;17.48;10.63;;;;;;;20.53;51.62;101513.53;1749154;81;21093;-79
2022/11/01 03:01:56;;;;;;;17.80;11.10;;;;;;;20.54;51.61;101517.95;1745575;81;21076;-79
2022/11/01 03:04:22;;;;;;;15.90;10.08;;;;;;;20.51;51.61;101516.03;1746273;81;22191;-78
2022/11/01 03:06:56;;;;;;;17.87;10.65;;;;;;;20.53;51.57;101521.83;1746383;80;21218;-79
2022/11/01 03:09:22;;;;;;;15.03;9.70;;;;;;;20.53;51.55;101521.83;1747268;81;21090;-78
2022/11/01 03:12:04;;;;;;;15.35;9.68;;;;;;;20.53;51.52;101529.56;1716514;80;21086;-78
2022/11/01 03:15:17;;;;;;;14.50;9.95;;;;;;;20.53;51.50;101524.03;1745506;80;21485;-79
2022/11/01 03:17:44;;;;;;;15.32;9.50;;;;;;;20.53;51.48;101528.73;1717095;80;21442;-78
2022/11/01 03:20:22;;;;;;;15.88;10.00;;;;;;;20.52;51.44;101526.52;1749148;80;21065;-78
2022/11/01 03:22:54;;;;;;;15.53;10.32;;;;;;;20.51;51.42;101530.41;1747831;80;21496;-78
2022/11/01 03:25:40;;;;;;;15.83;9.90;;;;;;;20.51;51.40;101532.61;1748803;80;21072;-78
2022/11/01 03:28:23;;;;;;;14.20;9.58;;;;;;;20.51;51.37;101538.14;1748235;80;21109;-78
2022/11/01 03:30:57;;;;;;;12.05;8.63;;;;;;;20.51;51.36;101534.55;1710116;81;21851;-79
2022/11/01 03:33:24;;;;;;;15.43;9.70;;;;;;;20.51;51.32;101529.02;1745257;80;21015;-78
2022/11/01 03:35:53;;;;;;;16.07;10.18;;;;;;;20.50;51.33;101526.81;1745013;80;21066;-79
2022/11/01 03:38:25;;;;;;;16.95;9.28;;;;;;;20.49;51.29;101523.81;1749991;80;21054;-78
2022/11/01 03:40:58;;;;;;;16.73;9.53;;;;;;;20.50;51.28;101523.22;1750559;80;21073;-79
2022/11/01 03:43:25;;;;;;;17.67;9.98;;;;;;;20.50;51.29;101528.75;1748531;80;21706;-78
2022/11/01 03:45:52;;;;;;;16.12;9.85;;;;;;;20.50;51.25;101524.61;1758154;80;21147;-79
2022/11/01 03:48:18;;;;;;;12.68;8.95;;;;;;;20.50;51.21;101528.75;1755709;80;21081;-78
2022/11/01 03:50:49;;;;;;;12.93;9.63;;;;;;;20.49;51.20;101525.20;1758847;80;21117;-78
2022/11/01 03:53:16;;;;;;;14.40;9.15;;;;;;;20.49;51.20;101530.72;1759854;81;21101;-79
2022/11/01 03:55:42;;;;;;;16.65;8.88;;;;;;;20.49;51.16;101533.48;1704794;80;21624;-79
2022/11/01 03:58:08;;;;;;;13.80;9.05;;;;;;;20.48;51.14;101530.45;1757628;81;21046;-79
2022/11/01 04:00:43;;;;;;;15.58;8.65;;;;;;;20.48;51.07;101531.84;1758989;80;21101;-78
2022/11/01 04:03:10;;;;;;;15.72;9.43;;;;;;;20.49;51.03;101532.11;1757315;79;20978;-78
2022/11/01 04:05:38;;;;;;;12.58;8.33;;;;;;;20.48;51.02;101529.08;1729144;81;21544;-78
2022/11/01 04:08:05;;;;;;;11.55;8.55;;;;;;;20.49;50.99;101528.52;1759607;80;21038;-78
2022/11/01 04:10:32;;;;;;;13.32;8.73;;;;;;;20.50;50.94;101524.61;1758819;80;21128;-78
2022/11/01 04:12:58;;;;;;;13.62;8.58;;;;;;;20.53;50.91;101524.59;1727564;80;21038;-78
2022/11/01 04:21:14;;;;;;;12.55;8.38;;;;;;;20.63;50.73;101525.23;1756891;80;21976;-79
2022/11/01 04:23:41;;;;;;;12.33;8.30;;;;;;;20.69;50.64;101526.81;1747233;81;21092;-78
2022/11/01 04:26:12;;;;;;;13.72;8.30;;;;;;;20.75;50.57;101520.06;1748775;81;21537;-78
2022/11/01 04:28:38;;;;;;;11.22;7.78;;;;;;;20.80;50.47;101518.59;1748561;81;21527;-78
2022/11/01 04:31:05;;;;;;;13.55;8.15;;;;;;;20.88;50.38;101519.84;1745121;81;21067;-78
2022/11/01 04:33:31;;;;;;;11.25;7.45;;;;;;;20.94;50.25;101514.50;1749974;81;20966;-78
2022/11/01 04:35:59;;;;;;;11.28;7.60;;;;;;;21.03;50.14;101513.25;1749541;81;21024;-79
2022/11/01 04:38:25;;;;;;;12.07;7.58;;;;;;;21.11;49.99;101521.67;1727420;81;21195;-78
2022/11/01 04:40:51;;;;;;;14.35;7.53;;;;;;;21.19;49.86;101512.70;1747893;80;22353;-78
2022/11/01 04:43:17;;;;;;;12.07;7.53;;;;;;;21.28;49.70;101523.33;1748100;80;21655;-79
2022/11/01 04:45:44;;;;;;;10.63;6.83;;;;;;;21.37;49.59;101522.06;1747689;81;21175;-78
2022/11/01 04:48:19;;;;;;;11.83;7.20;;;;;;;21.47;49.43;101516.91;1725167;81;21051;-78
2022/11/01 04:50:46;;;;;;;11.88;7.37;;;;;;;21.57;49.30;101523.61;1748587;81;21087;-78
2022/11/01 04:53:12;;;;;;;11.83;7.53;;;;;;;21.67;49.10;101527.02;1743932;81;21026;-78
2022/11/01 04:55:38;;;;;;;10.45;6.45;;;;;;;21.77;48.93;101524.02;1745216;81;21111;-78
2022/11/01 04:58:05;;;;;;;13.08;7.50;;;;;;;21.85;48.76;101523.30;1745015;81;21629;-78
2022/11/01 05:00:32;;;;;;;11.18;7.08;;;;;;;21.93;48.62;101524.58;1747283;81;21043;-78
2022/11/01 05:03:02;;;;;;;12.47;6.78;;;;;;;22.02;48.45;101528.83;1750552;80;21101;-78
2022/11/01 05:05:28;;;;;;;11.38;7.28;;;;;;;22.08;48.30;101532.55;1744798;81;21066;-79
2022/11/01 05:08:09;;;;;;;9.88;7.03;;;;;;;22.16;48.17;101532.37;1746645;81;21024;-79
2022/11/01 05:10:37;;;;;;;9.15;6.78;;;;;;;22.21;48.04;101531.71;1749009;81;21944;-79
2022/11/01 05:13:04;;;;;;;12.33;6.97;;;;;;;22.29;47.91;101538.46;1748732;80;21116;-79
2022/11/01 05:15:31;;;;;;;11.45;7.08;;;;;;;22.35;47.80;101549.70;1746406;81;21028;-79
2022/11/01 05:17:57;;;;;;;12.13;6.87;;;;;;;22.40;47.74;101542.66;1748132;81;21035;-78
2022/11/01 05:20:23;;;;;;;10.93;6.67;;;;;;;22.45;47.68;101545.30;1750909;81;21667;-78
2022/11/01 05:22:50;;;;;;;10.75;7.15;;;;;;;22.48;47.63;101546.08;1748998;80;21074;-78
2022/11/01 05:25:16;;;;;;;9.93;6.05;;;;;;;22.51;47.56;101553.77;1746318;80;21034;-78
2022/11/01 05:27:43;;;;;;;10.10;6.87;;;;;;;22.56;47.52;101550.05;1720910;81;21176;-79
2022/11/01 05:30:11;;;;;;;10.90;7.08;;;;;;;22.58;47.47;101548.59;1749072;79;21499;-78
2022/11/01 05:32:37;;;;;;;9.33;6.85;;;;;;;22.62;47.40;101552.95;1739771;81;21930;-78
2022/11/01 05:35:05;;;;;;;10.08;7.03;;;;;;;22.64;47.34;101557.06;1726261;81;21938;-78
2022/11/01 05:37:31;;;;;;;11.75;6.42;;;;;;;22.66;47.27;101553.39;1741110;81;21107;-78
2022/11/01 05:39:57;;;;;;;17.55;6.87;;;;;;;22.70;47.23;101550.88;1739851;81;21179;-77
2022/11/01 05:42:24;;;;;;;14.33;7.22;;;;;;;22.67;47.14;101546.72;1739120;81;21499;-77
2022/11/01 05:44:50;;;;;;;11.68;6.67;;;;;;;22.72;47.05;101548.02;1746112;81;21604;-77
2022/11/01 05:47:16;;;;;;;14.20;6.80;;;;;;;22.73;46.94;101559.37;1748371;80;21854;-76
2022/11/01 05:49:43;;;;;;;11.35;6.15;;;;;;;22.73;46.76;101562.16;1754198;80;21076;-77
2022/11/01 05:52:15;;;;;;;14.25;6.67;;;;;;;22.76;46.66;101566.23;1754576;80;21044;-77
2022/11/01 05:54:42;;;;;;;16.77;6.92;;;;;;;22.74;46.53;101561.00;1744761;80;21078;-77
2022/11/01 05:57:08;;;;;;;21.05;7.00;;;;;;;22.74;46.39;101567.93;1704408;81;21588;-78
2022/11/01 05:59:34;;;;;;;18.95;7.17;;;;;;;22.75;46.22;101572.91;1701847;82;21902;-77
2022/11/01 06:02:01;;;;;;;21.00;6.92;;;;;;;22.74;46.06;101576.25;1698086;83;21161;-76
2022/11/01 06:04:27;;;;;;;20.92;6.75;;;;;;;22.74;45.93;101579.63;1694006;82;21683;-75
2022/11/01 06:06:53;;;;;;;19.40;7.10;;;;;;;22.73;45.82;101580.19;1707890;82;21120;-78
2022/11/01 06:09:20;;;;;;;18.07;7.10;;;;;;;22.72;45.75;101582.70;1704374;82;21104;-78
2022/11/01 06:11:46;;;;;;;22.45;7.10;;;;;;;22.73;45.72;101580.75;1700333;83;21057;-78
2022/11/01 06:14:13;;;;;;;20.23;7.28;;;;;;;22.73;45.77;101582.95;1698744;82;21126;-78
2022/11/01 06:16:39;;;;;;;24.05;7.58;;;;;;;22.74;45.75;101576.84;1736412;80;21066;-80
2022/11/01 06:19:05;;;;;;;23.65;7.17;;;;;;;22.75;45.73;101585.40;1724086;81;21105;-77
2022/11/01 06:21:32;;;;;;;23.12;7.92;;;;;;;22.78;45.69;101585.36;1713550;80;21585;-78
2022/11/01 06:23:58;;;;;;;24.92;7.70;;;;;;;22.80;45.68;101583.90;1713299;83;21739;-80
2022/11/01 06:26:25;;;;;;;20.00;8.55;;;;;;;22.83;45.61;101583.86;1746274;80;21186;-79
2022/11/01 06:28:51;;;;;;;25.17;8.13;;;;;;;22.85;45.57;101590.72;1740360;79;21091;-88
2022/11/01 06:31:18;;;;;;;27.45;8.35;;;;;;;22.88;45.49;101587.87;1747441;80;21053;-83
2022/11/01 06:33:45;;;;;;;21.80;8.45;;;;;;;22.89;45.39;101592.30;1737030;80;21060;-85
2022/11/01 06:36:11;;;;;;;21.85;8.75;;;;;;;22.90;45.30;101589.22;1684163;81;21101;-86
2022/11/01 06:38:38;;;;;;;23.65;10.05;;;;;;;22.91;45.27;101592.25;1734896;80;21156;-85
2022/11/01 06:41:04;;;;;;;30.15;9.93;;;;;;;22.92;45.22;101589.70;1730464;80;21712;-84
2022/11/01 06:43:31;;;;;;;22.80;10.20;;;;;;;22.95;45.18;101591.88;1709303;81;21660;-85
2022/11/01 06:46:00;;;;;;;18.87;9.10;;;;;;;22.97;45.14;101592.92;1720802;82;21723;-77
2022/11/01 06:48:27;;;;;;;23.80;9.58;;;;;;;22.99;45.06;101593.45;1727323;80;21711;-84
2022/11/01 06:51:04;;;;;;;24.55;9.15;;;;;;;22.99;44.99;101594.27;1738218;80;21573;-84
2022/11/01 06:53:30;;;;;;;30.60;9.55;;;;;;;22.99;45.03;101592.88;1731397;80;21121;-84
2022/11/01 06:56:00;;;;;;;32.60;10.95;;;;;;;22.98;45.12;101584.30;1728431;81;21063;-81
2022/11/01 06:58:26;;;;;;;35.58;10.80;;;;;;;23.00;45.24;101592.32;1727064;80;21066;-76
2022/11/01 07:00:53;;;;;;;38.05;9.73;;;;;;;22.99;45.33;101595.66;1710052;80;21190;-76
2022/11/01 07:03:19;;;;;;;32.10;8.40;;;;;;;23.01;45.33;101591.16;1706575;81;21597;-80
2022/11/01 07:05:48;;;;;;;33.28;8.68;;;;;;;23.01;45.42;101593.37;1728706;81;22193;-77
2022/11/01 07:08:14;;;;;;;35.65;8.65;;;;;;;23.03;45.42;101586.13;1738865;80;21104;-78
2022/11/01 07:10:41;;;;;;;26.27;8.33;;;;;;;22.99;45.60;101586.51;1739717;80;21086;-77
2022/11/01 07:13:12;;;;;;;23.87;7.80;;;;;;;22.98;45.79;101584.86;1727285;80;21462;-80
2022/11/01 07:15:39;;;;;;;31.10;8.13;;;;;;;22.97;46.01;101585.98;1720313;80;21073;-75
2022/11/01 07:18:07;;;;;;;26.10;8.50;;;;;;;22.95;46.20;101582.16;1724926;80;21192;-82
2022/11/01 07:20:40;;;;;;;23.25;8.28;;;;;;;22.94;46.34;101583.84;1729604;80;21402;-83
2022/11/01 07:23:11;;;;;;;20.92;7.97;;;;;;;22.90;46.52;101579.50;1737095;80;21538;-81
2022/11/01 07:25:38;;;;;;;18.52;7.20;;;;;;;22.88;46.64;101580.94;1732783;80;20979;-85
2022/11/01 07:28:05;;;;;;;28.17;7.95;;;;;;;22.83;46.75;101582.47;1727171;81;21130;-83
2022/11/01 07:30:31;;;;;;;21.60;8.05;;;;;;;22.80;46.83;101584.46;1729436;80;20996;-81
2022/11/01 07:32:59;;;;;;;16.60;7.90;;;;;;;22.75;46.87;101586.78;1722441;81;22047;-78
2022/11/01 07:35:26;;;;;;;19.57;8.05;;;;;;;22.69;46.92;101588.88;1710074;82;21096;-85
2022/11/01 07:37:58;;;;;;;23.22;7.80;;;;;;;22.63;46.93;101585.10;1718343;80;21076;-81
2022/11/01 07:40:26;;;;;;;23.30;8.30;;;;;;;22.58;46.92;101587.42;1676466;83;21109;-84
2022/11/01 07:42:58;;;;;;;20.97;7.50;;;;;;;22.54;46.94;101580.86;1702881;82;21755;-78
2022/11/01 07:45:26;;;;;;;18.25;8.33;;;;;;;22.51;46.92;101578.72;1700474;82;21096;-78
2022/11/01 07:47:52;;;;;;;24.25;8.48;;;;;;;22.47;46.96;101581.05;1730969;81;21093;-81
2022/11/01 07:50:19;;;;;;;28.47;8.55;;;;;;;22.43;46.94;101580.85;1730309;80;21157;-76
2022/11/01 07:52:45;;;;;;;20.35;8.18;;;;;;;22.38;47.07;101579.57;1718614;81;21067;-77
2022/11/01 07:55:11;;;;;;;26.80;8.50;;;;;;;22.33;47.27;101579.67;1723706;81;21140;-78
2022/11/01 07:57:39;;;;;;;31.07;8.70;;;;;;;22.29;47.38;101573.94;1716238;81;21788;-77
2022/11/01 08:00:06;;;;;;;38.60;9.58;;;;;;;22.26;47.45;101577.91;1754206;80;21061;-79
2022/11/01 08:02:33;;;;;;;28.50;8.63;;;;;;;22.22;47.55;101577.70;1715184;82;21159;-77
2022/11/01 08:04:59;;;;;;;41.95;9.00;;;;;;;22.18;47.62;101572.53;1685340;83;21648;-78
2022/11/01 08:07:25;;;;;;;36.83;8.58;;;;;;;22.15;47.66;101568.97;1730500;80;21046;-80
2022/11/01 08:09:53;;;;;;;27.42;8.03;;;;;;;22.11;47.72;101566.56;1720007;80;21150;-83
2022/11/01 08:12:20;;;;;;;34.83;8.75;;;;;;;22.09;47.77;101567.45;1732992;80;21736;-82
2022/11/01 08:14:46;;;;;;;27.42;8.10;;;;;;;22.07;47.83;101566.92;1716835;81;20953;-83
2022/11/01 08:17:12;;;;;;;32.85;8.28;;;;;;;22.06;47.86;101565.87;1716636;81;21196;-83
2022/11/01 08:19:38;;;;;;;26.20;8.30;;;;;;;22.05;47.93;101567.81;1711408;81;21080;-83
2022/11/01 08:22:05;;;;;;;23.85;8.45;;;;;;;22.03;48.01;101562.31;1714393;81;21064;-83
2022/11/01 08:24:31;;;;;;;29.02;8.48;;;;;;;22.01;48.05;101562.64;1742934;80;21100;-84
2022/11/01 08:26:58;;;;;;;25.60;8.38;;;;;;;21.99;48.08;101563.50;1748912;79;21092;-81
2022/11/01 08:29:24;;;;;;;25.52;9.10;;;;;;;21.98;48.13;101560.46;1726544;80;21194;-79
2022/11/01 08:31:50;;;;;;;25.52;9.55;;;;;;;21.98;48.16;101552.74;1723699;80;21445;-84
2022/11/01 08:34:17;;;;;;;26.05;9.50;;;;;;;21.95;48.17;101547.80;1683695;82;21086;-88
2022/11/01 08:36:43;;;;;;;25.75;9.38;;;;;;;21.93;48.20;101543.97;1681490;84;21101;-85
2022/11/01 08:39:10;;;;;;;28.62;8.90;;;;;;;21.92;48.24;101542.32;1753226;80;21619;-80
2022/11/01 08:41:37;;;;;;;24.80;8.53;;;;;;;21.91;48.26;101544.80;1752178;80;21096;-83
2022/11/01 08:44:03;;;;;;;31.97;8.70;;;;;;;21.91;48.29;101539.81;1751326;80;21516;-80
2022/11/01 08:46:30;;;;;;;26.80;9.05;;;;;;;21.90;48.35;101538.20;1745004;80;21090;-77
2022/11/01 08:48:59;;;;;;;30.50;9.50;;;;;;;21.89;48.38;101542.92;1746716;80;21140;-78
2022/11/01 08:51:25;;;;;;;34.27;10.20;;;;;;;21.86;48.42;101540.18;1750777;80;21218;-76
2022/11/01 08:53:55;;;;;;;51.68;10.45;;;;;;;21.86;48.82;101534.64;1735244;80;21119;-78
2022/11/01 08:56:23;;;;;;;44.18;10.90;;;;;;;21.87;49.20;101541.83;1744781;80;21092;-77
2022/11/01 08:58:51;;;;;;;46.37;10.25;;;;;;;21.90;49.57;101538.20;1747785;80;21522;-75
2022/11/01 09:01:18;;;;;;;76.22;11.18;;;;;;;21.90;49.72;101543.15;1743931;80;21910;-80
2022/11/01 09:03:44;;;;;;;61.40;12.43;;;;;;;21.91;49.85;101539.81;1716392;80;22160;-77
2022/11/01 09:06:11;;;;;;;48.40;10.28;;;;;;;21.91;50.00;101541.20;1756364;80;21096;-79
2022/11/01 09:08:37;;;;;;;36.23;9.70;;;;;;;21.93;50.00;101543.97;1726370;81;21117;-77
2022/11/01 09:11:06;;;;;;;36.55;8.90;;;;;;;21.91;49.87;101540.64;1738953;80;21132;-78
2022/11/01 09:13:33;;;;;;;29.30;8.75;;;;;;;21.89;49.79;101542.92;1738722;80;21130;-75
2022/11/01 09:16:05;;;;;;;43.85;8.10;;;;;;;21.86;49.76;101536.02;1742199;80;21471;-76
2022/11/01 09:18:32;;;;;;;39.75;9.13;;;;;;;21.86;49.81;101534.64;1737540;80;21107;-78
2022/11/01 09:20:58;;;;;;;39.03;9.33;;;;;;;21.85;49.84;101534.97;1754296;80;21112;-77
2022/11/01 09:23:25;;;;;;;34.85;9.28;;;;;;;21.83;49.84;101532.50;1749113;80;21110;-77
2022/11/01 09:25:51;;;;;;;24.02;7.90;;;;;;;21.81;49.92;101531.97;1741935;80;21706;-78
2022/11/01 09:28:18;;;;;;;29.80;8.40;;;;;;;21.81;49.95;101529.20;1739759;80;21685;-78
2022/11/01 09:30:45;;;;;;;32.53;9.30;;;;;;;21.81;49.95;101526.42;1741403;80;21058;-77
2022/11/01 09:33:11;;;;;;;46.45;9.95;;;;;;;21.80;49.93;101532.30;1725752;80;21182;-77
2022/11/01 09:35:38;;;;;;;41.02;9.30;;;;;;;21.79;50.36;101527.31;1761070;80;21146;-77
2022/11/01 09:38:04;;;;;;;31.60;8.95;;;;;;;21.79;50.83;101521.78;1748675;80;21333;-78
2022/11/01 09:40:39;;;;;;;35.95;9.55;;;;;;;21.80;51.03;101524.81;1751134;80;21186;-79
2022/11/01 09:43:07;;;;;;;39.35;9.08;;;;;;;21.81;50.94;101524.25;1734530;80;21082;-79
2022/11/01 09:45:34;;;;;;;41.15;10.23;;;;;;;21.81;50.92;101518.12;1748847;80;21251;-77
2022/11/01 09:48:03;;;;;;;37.25;8.88;;;;;;;21.82;50.97;101511.45;1662649;81;21067;-78
2022/11/01 09:50:33;;;;;;;32.73;8.25;;;;;;;21.84;50.88;101509.21;1740711;80;21055;-80
2022/11/01 09:53:00;;;;;;;39.67;7.62;;;;;;;21.87;50.93;101511.91;1750406;79;21981;-79
2022/11/01 09:55:52;;;;;;;34.85;8.73;;;;;;;21.88;50.88;101508.84;1754746;80;21599;-79
2022/11/01 09:58:32;;;;;;;49.00;8.78;;;;;;;21.90;50.83;101507.73;1755022;80;21025;-81
2022/11/01 10:01:04;;;;;;;26.07;6.87;;;;;;;21.90;50.66;101507.13;1737787;78;21187;-79
2022/11/01 10:04:01;;;;;;;21.27;7.05;;;;;;;21.90;50.23;101503.57;1657610;79;21109;-77
2022/11/01 10:06:31;;;;;;;27.40;7.42;;;;;;;21.90;49.93;101504.95;1755042;80;21153;-77
2022/11/01 10:09:15;;;;;;;81.17;9.85;;;;;;;21.86;49.87;101504.17;1738866;80;24974;-77
2022/11/01 10:12:16;;;;;;;31.65;7.20;;;;;;;21.84;49.64;101500.08;1748549;79;21023;-77
2022/11/01 10:15:03;;;;;;;24.75;6.87;;;;;;;21.81;49.56;101501.50;1773205;80;21078;-77
2022/11/01 10:17:49;;;;;;;27.25;7.40;;;;;;;21.78;49.08;101495.20;1751676;80;21157;-77
2022/11/01 10:20:28;;;;;;;18.60;6.45;;;;;;;21.77;48.92;101497.70;1719781;80;21185;-77
2022/11/01 10:22:54;;;;;;;22.40;7.58;;;;;;;21.75;48.64;101497.77;1689414;83;21154;-77
2022/11/01 10:25:32;;;;;;;19.27;7.17;;;;;;;21.73;48.57;101493.09;1707727;81;21332;-77
2022/11/01 10:28:07;;;;;;;23.15;6.75;;;;;;;21.73;48.57;101491.14;1741991;80;21027;-76
2022/11/01 10:30:41;;;;;;;17.95;5.97;;;;;;;21.72;48.38;101493.68;1748012;80;21298;-78
2022/11/01 10:33:22;;;;;;;15.53;6.33;;;;;;;21.73;48.03;101488.94;1731789;80;21631;-76
2022/11/01 10:35:59;;;;;;;14.73;6.05;;;;;;;21.72;47.52;101486.76;1752183;81;21049;-77
2022/11/01 10:38:44;;;;;;;15.63;6.15;;;;;;;21.72;47.42;101483.16;1737891;81;21041;-77
2022/11/01 10:41:24;;;;;;;20.57;7.12;;;;;;;21.71;47.42;101481.52;1744203;80;21164;-77
2022/11/01 10:44:00;;;;;;;16.30;6.17;;;;;;;21.70;47.46;101478.48;1695569;83;21360;-77
2022/11/01 10:46:31;;;;;;;13.75;6.15;;;;;;;21.68;47.41;101475.22;1701293;83;21355;-77
2022/11/01 10:49:18;;;;;;;17.40;6.67;;;;;;;21.67;47.12;101476.34;1730439;80;21037;-78
2022/11/01 10:51:53;;;;;;;15.23;6.72;;;;;;;21.65;46.92;101468.33;1713098;81;21239;-76
2022/11/01 10:54:25;;;;;;;24.37;6.60;;;;;;;21.63;46.65;101458.14;1679729;80;21071;-77
2022/11/01 10:56:53;;;;;;;18.48;6.78;;;;;;;21.64;46.60;101458.97;1708164;80;21578;-77
2022/11/01 10:59:43;;;;;;;26.80;6.60;;;;;;;21.65;46.58;101452.28;1709342;81;21216;-79
2022/11/01 11:02:32;;;;;;;24.80;6.95;;;;;;;21.65;46.57;101446.73;1743211;80;21630;-78
2022/11/01 11:04:58;;;;;;;28.15;6.47;;;;;;;21.65;46.59;101438.43;1752677;79;21141;-77
2022/11/01 11:07:30;;;;;;;32.03;6.60;;;;;;;21.66;46.67;101436.75;1746502;80;21075;-77
2022/11/01 11:09:56;;;;;;;22.58;7.17;;;;;;;21.68;46.43;101436.45;1746332;80;21093;-77
2022/11/01 11:12:23;;;;;;;21.50;6.35;;;;;;;21.69;46.31;101440.83;1745590;80;21150;-76
2022/11/01 11:15:00;;;;;;;24.65;6.45;;;;;;;21.68;46.20;101430.91;1740851;80;21219;-77
2022/11/01 11:17:37;;;;;;;15.68;5.95;;;;;;;21.67;46.14;101428.70;1737666;80;21150;-77
2022/11/01 11:20:06;;;;;;;15.53;5.97;;;;;;;21.67;46.28;101430.09;1745523;80;21543;-77
2022/11/01 11:22:39;;;;;;;20.62;7.25;;;;;;;21.65;46.43;101425.97;1742218;80;21003;-77
2022/11/01 11:25:05;;;;;;;18.07;6.37;;;;;;;21.65;46.53;101421.81;1738968;80;21874;-76
2022/11/01 11:27:33;;;;;;;16.75;6.40;;;;;;;21.64;46.61;101416.05;1740429;80;21557;-77
2022/11/01 11:30:04;;;;;;;18.45;6.15;;;;;;;21.63;46.60;101413.02;1758131;80;20988;-77
2022/11/01 11:32:32;;;;;;;18.73;5.92;;;;;;;21.61;46.55;101410.55;1745820;80;21137;-78
2022/11/01 11:35:09;;;;;;;15.03;6.22;;;;;;;21.60;46.46;101408.89;1739813;80;21063;-78
2022/11/01 11:37:35;;;;;;;11.00;5.87;;;;;;;21.60;46.40;101403.95;1754765;80;21612;-78